Richard Gonsoulin II — WDD8676 — position and weather

sailwx.info

Track history (hours):
 
Tides and Currents Weather Stations Pressure Air Temp Water Temp Dewpoint Dewpoint Depression Visibility Wind Speed Wind Dir Waves Ship Positions

Richard Gonsoulin II

Owner: LeBeouf Bros. Towing, LLC, Houma, LA. More information available from US FCC via Universal Licensing System and Coast Guard Vessel Documentation Center.

Last reported at 2018-Jun-17 18:03 UTC. Time now 2018-Jun-19 01:18 UTC.
Position N 29°42' W 094°59'.

Length 22 m; draft 3 m.

Type: Tug. MMSI: 367301310.

Date/timePositionNaut miles runAvg speedWind from/ knotsBaromVisibWave heightAir tempDewpointWater temp
2018-Jun-17 18:03N 29°42' W 094°59'0 7.7
2018-Jun-17 18:00N 29°41' W 094°59'4 7.3
2018-Jun-17 17:30N 29°38' W 094°58'5 1.8
2018-Jun-17 14:29N 29°33' W 094°55'3 6.3
2018-Jun-17 13:56N 29°36' W 094°57'3 6.4
2018-Jun-17 13:28N 29°39' W 094°58'3 6.2
2018-Jun-17 13:00N 29°41' W 094°59'  
2018-Jun-15 01:05N 29°42' W 095°01'1 7.1
2018-Jun-15 00:54N 29°42' W 094°59'4 7.3
2018-Jun-15 00:23N 29°38' W 094°58'17 7.9
2018-Jun-14 22:17N 29°23' W 094°49'2 5.7
2018-Jun-14 21:57N 29°23' W 094°47'1 1.0
2018-Jun-14 21:24N 29°23' W 094°46'0 0.0
2018-Jun-14 21:00N 29°23' W 094°46'0 0.0
2018-Jun-14 20:29N 29°23' W 094°46'0 0.0
2018-Jun-14 20:00N 29°23' W 094°46'0 0.0
2018-Jun-14 19:29N 29°23' W 094°46'0 0.0
2018-Jun-14 18:59N 29°23' W 094°46'0 0.0
2018-Jun-14 18:26N 29°23' W 094°46'0 0.0
2018-Jun-14 17:58N 29°23' W 094°46'0 0.0
2018-Jun-14 17:28N 29°23' W 094°46'0 0.0
2018-Jun-14 16:52N 29°23' W 094°46'0 0.0
2018-Jun-14 16:24N 29°23' W 094°46'0 0.4
2018-Jun-14 15:56N 29°23' W 094°46'0 0.4
2018-Jun-14 15:28N 29°23' W 094°46'3 0.5
2018-Jun-14 09:00N 29°21' W 094°43'3 6.5
2018-Jun-14 08:30N 29°21' W 094°47'2 3.6
2018-Jun-14 07:58N 29°23' W 094°46'0 0.0
2018-Jun-14 07:25N 29°23' W 094°46'0 0.0
2018-Jun-14 07:00N 29°23' W 094°46'0 0.0
2018-Jun-14 06:30N 29°23' W 094°46'0 0.0
2018-Jun-14 05:58N 29°23' W 094°46'0 0.0
2018-Jun-14 05:30N 29°23' W 094°46'0 0.0
2018-Jun-14 04:58N 29°23' W 094°46'0 0.0
2018-Jun-14 04:30N 29°23' W 094°46'0 0.0
2018-Jun-14 03:52N 29°23' W 094°46'0 0.0
2018-Jun-14 03:26N 29°23' W 094°46'0 0.0
2018-Jun-14 02:48N 29°23' W 094°46'0 0.0
2018-Jun-14 02:20N 29°23' W 094°46'0 0.0
2018-Jun-14 01:55N 29°23' W 094°46'0 0.0
2018-Jun-14 01:24N 29°23' W 094°46'0 0.0
2018-Jun-14 01:00N 29°23' W 094°46'0 0.0
2018-Jun-14 00:30N 29°23' W 094°46'0 0.0
2018-Jun-14 00:00N 29°23' W 094°46'0 0.0
2018-Jun-13 23:04N 29°23' W 094°46'0 0.0
2018-Jun-13 22:40N 29°23' W 094°46'0 0.0
2018-Jun-13 22:22N 29°23' W 094°46'0 0.0
2018-Jun-13 21:46N 29°23' W 094°46'0 0.0
2018-Jun-13 21:26N 29°23' W 094°46'0 0.0
2018-Jun-13 21:00N 29°23' W 094°46'0 0.0
2018-Jun-13 20:29N 29°23' W 094°46'0 0.0
2018-Jun-13 20:00N 29°23' W 094°46'1 0.7
2018-Jun-13 17:59N 29°22' W 094°48'13 8.5
2018-Jun-13 16:30N 29°33' W 094°55'4 8.9
2018-Jun-13 16:00N 29°37' W 094°57'5 8.8
2018-Jun-13 15:26N 29°42' W 094°59'3 0.3
2018-Jun-13 05:26N 29°42' W 095°03'0 0.0
2018-Jun-13 04:52N 29°42' W 095°03'0 0.0
2018-Jun-13 04:30N 29°42' W 095°03'0 0.0
2018-Jun-13 03:57N 29°42' W 095°03'0 0.0
2018-Jun-13 03:23N 29°42' W 095°03'  
2018-Jun-09 04:33N 29°41' W 094°59'0 5.7
2018-Jun-09 04:29N 29°41' W 094°59'3 5.9
2018-Jun-09 03:58N 29°38' W 094°58'3 6.1
2018-Jun-09 03:30N 29°36' W 094°57'4 6.5
2018-Jun-09 02:51N 29°32' W 094°54'5 5.8
2018-Jun-09 01:56N 29°27' W 094°51'3 5.6
2018-Jun-09 01:28N 29°25' W 094°50'3 5.3
2018-Jun-09 00:53N 29°22' W 094°48'3 0.3
2018-Jun-08 14:36N 29°19' W 094°49'0 0.0
2018-Jun-08 14:30N 29°19' W 094°49'0 0.0
2018-Jun-08 14:00N 29°19' W 094°49'0 0.0
2018-Jun-08 13:28N 29°19' W 094°49'0 0.0
2018-Jun-08 12:59N 29°19' W 094°49'0 0.0
2018-Jun-08 12:26N 29°19' W 094°49'0 0.0
2018-Jun-08 12:00N 29°19' W 094°49'0 0.0
2018-Jun-08 11:30N 29°19' W 094°49'0 0.0
2018-Jun-08 10:04N 29°19' W 094°49'0 0.0
2018-Jun-08 09:58N 29°19' W 094°49'0 0.0
2018-Jun-08 09:30N 29°19' W 094°49'0 0.0
2018-Jun-08 09:00N 29°19' W 094°49'0 0.0
2018-Jun-08 08:30N 29°19' W 094°49'0 0.0
2018-Jun-08 08:00N 29°19' W 094°49'0 0.0
2018-Jun-08 07:30N 29°19' W 094°49'0 0.0
2018-Jun-08 07:00N 29°19' W 094°49'0 0.0
2018-Jun-08 06:30N 29°19' W 094°49'0 0.0
2018-Jun-08 06:00N 29°19' W 094°49'0 0.0
2018-Jun-08 05:30N 29°19' W 094°49'0 0.0
2018-Jun-08 05:00N 29°19' W 094°49'0 0.0
2018-Jun-08 04:30N 29°19' W 094°49'0 0.0
2018-Jun-08 04:00N 29°19' W 094°49'0 0.5
2018-Jun-08 03:28N 29°19' W 094°48'0 0.8
2018-Jun-08 03:00N 29°19' W 094°48'2 3.2
2018-Jun-08 02:30N 29°20' W 094°47'2 4.5
2018-Jun-08 02:00N 29°21' W 094°48'1 2.2
2018-Jun-08 01:29N 29°21' W 094°49'0 0.2
2018-Jun-08 01:00N 29°21' W 094°49'0 0.0
2018-Jun-08 00:30N 29°21' W 094°49'0 0.0
2018-Jun-08 00:00N 29°21' W 094°49'0 0.0
2018-Jun-07 23:29N 29°21' W 094°49'0 0.0
2018-Jun-07 23:00N 29°21' W 094°49'0 0.0
2018-Jun-07 22:30N 29°21' W 094°49'0 0.0
2018-Jun-07 22:00N 29°21' W 094°49'0 0.0
2018-Jun-07 21:30N 29°21' W 094°49'0 0.0
2018-Jun-07 21:00N 29°21' W 094°49'0 0.0
2018-Jun-07 20:30N 29°21' W 094°49'0 0.0
2018-Jun-07 19:59N 29°21' W 094°49'0 0.0
2018-Jun-07 19:30N 29°21' W 094°49'0 0.0
2018-Jun-07 19:00N 29°21' W 094°49'0 0.0
2018-Jun-07 18:28N 29°21' W 094°49'  
Track history (hours):
 
Tides and Currents Weather Stations Pressure Air Temp Water Temp Dewpoint Dewpoint Depression Visibility Wind Speed Wind Dir Waves Ship Positions

Richard Gonsoulin II

Owner: LeBeouf Bros. Towing, LLC, Houma, LA. More information available from US FCC via Universal Licensing System and Coast Guard Vessel Documentation Center.

Last reported at 2018-Jun-17 18:03 UTC. Time now 2018-Jun-19 01:18 UTC.
Position N 29°42' W 094°59'.

Length 22 m; draft 3 m.

Type: Tug. MMSI: 367301310.

Date/timePositionNaut miles runAvg speedWind from/ knotsBaromVisibWave heightAir tempDewpointWater temp
2018-Jun-17 18:03N 29°42' W 094°59'0 7.7
2018-Jun-17 18:00N 29°41' W 094°59'4 7.3
2018-Jun-17 17:30N 29°38' W 094°58'5 1.8
2018-Jun-17 14:29N 29°33' W 094°55'3 6.3
2018-Jun-17 13:56N 29°36' W 094°57'3 6.4
2018-Jun-17 13:28N 29°39' W 094°58'3 6.2
2018-Jun-17 13:00N 29°41' W 094°59'  
2018-Jun-15 01:05N 29°42' W 095°01'1 7.1
2018-Jun-15 00:54N 29°42' W 094°59'4 7.3
2018-Jun-15 00:23N 29°38' W 094°58'17 7.9
2018-Jun-14 22:17N 29°23' W 094°49'2 5.7
2018-Jun-14 21:57N 29°23' W 094°47'1 1.0
2018-Jun-14 21:24N 29°23' W 094°46'0 0.0
2018-Jun-14 21:00N 29°23' W 094°46'0 0.0
2018-Jun-14 20:29N 29°23' W 094°46'0 0.0
2018-Jun-14 20:00N 29°23' W 094°46'0 0.0
2018-Jun-14 19:29N 29°23' W 094°46'0 0.0
2018-Jun-14 18:59N 29°23' W 094°46'0 0.0
2018-Jun-14 18:26N 29°23' W 094°46'0 0.0
2018-Jun-14 17:58N 29°23' W 094°46'0 0.0
2018-Jun-14 17:28N 29°23' W 094°46'0 0.0
2018-Jun-14 16:52N 29°23' W 094°46'0 0.0
2018-Jun-14 16:24N 29°23' W 094°46'0 0.4
2018-Jun-14 15:56N 29°23' W 094°46'0 0.4
2018-Jun-14 15:28N 29°23' W 094°46'3 0.5
2018-Jun-14 09:00N 29°21' W 094°43'3 6.5
2018-Jun-14 08:30N 29°21' W 094°47'2 3.6
2018-Jun-14 07:58N 29°23' W 094°46'0 0.0
2018-Jun-14 07:25N 29°23' W 094°46'0 0.0
2018-Jun-14 07:00N 29°23' W 094°46'0 0.0
2018-Jun-14 06:30N 29°23' W 094°46'0 0.0
2018-Jun-14 05:58N 29°23' W 094°46'0 0.0
2018-Jun-14 05:30N 29°23' W 094°46'0 0.0
2018-Jun-14 04:58N 29°23' W 094°46'0 0.0
2018-Jun-14 04:30N 29°23' W 094°46'0 0.0
2018-Jun-14 03:52N 29°23' W 094°46'0 0.0
2018-Jun-14 03:26N 29°23' W 094°46'0 0.0
2018-Jun-14 02:48N 29°23' W 094°46'0 0.0
2018-Jun-14 02:20N 29°23' W 094°46'0 0.0
2018-Jun-14 01:55N 29°23' W 094°46'0 0.0
2018-Jun-14 01:24N 29°23' W 094°46'0 0.0
2018-Jun-14 01:00N 29°23' W 094°46'0 0.0
2018-Jun-14 00:30N 29°23' W 094°46'0 0.0
2018-Jun-14 00:00N 29°23' W 094°46'0 0.0
2018-Jun-13 23:04N 29°23' W 094°46'0 0.0
2018-Jun-13 22:40N 29°23' W 094°46'0 0.0
2018-Jun-13 22:22N 29°23' W 094°46'0 0.0
2018-Jun-13 21:46N 29°23' W 094°46'0 0.0
2018-Jun-13 21:26N 29°23' W 094°46'0 0.0
2018-Jun-13 21:00N 29°23' W 094°46'0 0.0
2018-Jun-13 20:29N 29°23' W 094°46'0 0.0
2018-Jun-13 20:00N 29°23' W 094°46'1 0.7
2018-Jun-13 17:59N 29°22' W 094°48'13 8.5
2018-Jun-13 16:30N 29°33' W 094°55'4 8.9
2018-Jun-13 16:00N 29°37' W 094°57'5 8.8
2018-Jun-13 15:26N 29°42' W 094°59'3 0.3
2018-Jun-13 05:26N 29°42' W 095°03'0 0.0
2018-Jun-13 04:52N 29°42' W 095°03'0 0.0
2018-Jun-13 04:30N 29°42' W 095°03'0 0.0
2018-Jun-13 03:57N 29°42' W 095°03'0 0.0
2018-Jun-13 03:23N 29°42' W 095°03'  
2018-Jun-09 04:33N 29°41' W 094°59'0 5.7
2018-Jun-09 04:29N 29°41' W 094°59'3 5.9
2018-Jun-09 03:58N 29°38' W 094°58'3 6.1
2018-Jun-09 03:30N 29°36' W 094°57'4 6.5
2018-Jun-09 02:51N 29°32' W 094°54'5 5.8
2018-Jun-09 01:56N 29°27' W 094°51'3 5.6
2018-Jun-09 01:28N 29°25' W 094°50'3 5.3
2018-Jun-09 00:53N 29°22' W 094°48'3 0.3
2018-Jun-08 14:36N 29°19' W 094°49'0 0.0
2018-Jun-08 14:30N 29°19' W 094°49'0 0.0
2018-Jun-08 14:00N 29°19' W 094°49'0 0.0
2018-Jun-08 13:28N 29°19' W 094°49'0 0.0
2018-Jun-08 12:59N 29°19' W 094°49'0 0.0
2018-Jun-08 12:26N 29°19' W 094°49'0 0.0
2018-Jun-08 12:00N 29°19' W 094°49'0 0.0
2018-Jun-08 11:30N 29°19' W 094°49'0 0.0
2018-Jun-08 10:04N 29°19' W 094°49'0 0.0
2018-Jun-08 09:58N 29°19' W 094°49'0 0.0
2018-Jun-08 09:30N 29°19' W 094°49'0 0.0
2018-Jun-08 09:00N 29°19' W 094°49'0 0.0
2018-Jun-08 08:30N 29°19' W 094°49'0 0.0
2018-Jun-08 08:00N 29°19' W 094°49'0 0.0
2018-Jun-08 07:30N 29°19' W 094°49'0 0.0
2018-Jun-08 07:00N 29°19' W 094°49'0 0.0
2018-Jun-08 06:30N 29°19' W 094°49'0 0.0
2018-Jun-08 06:00N 29°19' W 094°49'0 0.0
2018-Jun-08 05:30N 29°19' W 094°49'0 0.0
2018-Jun-08 05:00N 29°19' W 094°49'0 0.0
2018-Jun-08 04:30N 29°19' W 094°49'0 0.0
2018-Jun-08 04:00N 29°19' W 094°49'0 0.5
2018-Jun-08 03:28N 29°19' W 094°48'0 0.8
2018-Jun-08 03:00N 29°19' W 094°48'2 3.2
2018-Jun-08 02:30N 29°20' W 094°47'2 4.5
2018-Jun-08 02:00N 29°21' W 094°48'1 2.2
2018-Jun-08 01:29N 29°21' W 094°49'0 0.2
2018-Jun-08 01:00N 29°21' W 094°49'0 0.0
2018-Jun-08 00:30N 29°21' W 094°49'0 0.0
2018-Jun-08 00:00N 29°21' W 094°49'0 0.0
2018-Jun-07 23:29N 29°21' W 094°49'0 0.0
2018-Jun-07 23:00N 29°21' W 094°49'0 0.0
2018-Jun-07 22:30N 29°21' W 094°49'0 0.0
2018-Jun-07 22:00N 29°21' W 094°49'0 0.0
2018-Jun-07 21:30N 29°21' W 094°49'0 0.0
2018-Jun-07 21:00N 29°21' W 094°49'0 0.0
2018-Jun-07 20:30N 29°21' W 094°49'0 0.0
2018-Jun-07 19:59N 29°21' W 094°49'0 0.0
2018-Jun-07 19:30N 29°21' W 094°49'0 0.0
2018-Jun-07 19:00N 29°21' W 094°49'0 0.0
2018-Jun-07 18:28N 29°21' W 094°49'  

Dump ship's entire track history